sensor_id;sensor_type;location;lat;lon;timestamp;P1;durP1;ratioP1;P2;durP2;ratioP2
57433;SDS011;43277;52.672;6.984;2024-03-08T00:01:53;16.13;;;8.45;;
57433;SDS011;43277;52.672;6.984;2024-03-08T00:04:18;24.98;;;11.25;;
57433;SDS011;43277;52.672;6.984;2024-03-08T00:06:44;23.75;;;10.63;;
57433;SDS011;43277;52.672;6.984;2024-03-08T00:09:11;25.42;;;11.52;;
57433;SDS011;43277;52.672;6.984;2024-03-08T00:11:37;21.40;;;9.88;;
57433;SDS011;43277;52.672;6.984;2024-03-08T00:14:03;25.23;;;11.18;;
57433;SDS011;43277;52.672;6.984;2024-03-08T00:16:31;28.08;;;11.68;;
57433;SDS011;43277;52.672;6.984;2024-03-08T00:18:58;19.25;;;9.15;;
57433;SDS011;43277;52.672;6.984;2024-03-08T00:21:23;22.50;;;11.02;;
57433;SDS011;43277;52.672;6.984;2024-03-08T00:23:49;23.48;;;9.95;;
57433;SDS011;43277;52.672;6.984;2024-03-08T00:26:15;24.35;;;11.52;;
57433;SDS011;43277;52.672;6.984;2024-03-08T00:28:40;25.88;;;11.55;;
57433;SDS011;43277;52.672;6.984;2024-03-08T00:31:06;24.15;;;11.23;;
57433;SDS011;43277;52.672;6.984;2024-03-08T00:33:32;24.73;;;10.68;;
57433;SDS011;43277;52.672;6.984;2024-03-08T00:35:58;17.05;;;9.00;;
57433;SDS011;43277;52.672;6.984;2024-03-08T00:38:23;17.42;;;9.82;;
57433;SDS011;43277;52.672;6.984;2024-03-08T00:40:49;18.95;;;9.73;;
57433;SDS011;43277;52.672;6.984;2024-03-08T00:43:14;19.27;;;9.13;;
57433;SDS011;43277;52.672;6.984;2024-03-08T00:45:40;27.00;;;11.40;;
57433;SDS011;43277;52.672;6.984;2024-03-08T00:48:09;21.17;;;9.98;;
57433;SDS011;43277;52.672;6.984;2024-03-08T00:50:36;26.08;;;12.95;;
57433;SDS011;43277;52.672;6.984;2024-03-08T00:53:01;23.15;;;10.13;;
57433;SDS011;43277;52.672;6.984;2024-03-08T00:55:27;23.02;;;11.45;;
57433;SDS011;43277;52.672;6.984;2024-03-08T00:57:54;21.10;;;9.13;;
57433;SDS011;43277;52.672;6.984;2024-03-08T01:00:20;27.20;;;11.55;;
57433;SDS011;43277;52.672;6.984;2024-03-08T01:02:46;19.63;;;10.15;;
57433;SDS011;43277;52.672;6.984;2024-03-08T01:05:12;27.33;;;11.75;;
57433;SDS011;43277;52.672;6.984;2024-03-08T01:07:38;21.10;;;10.57;;
57433;SDS011;43277;52.672;6.984;2024-03-08T01:10:04;22.88;;;10.75;;
57433;SDS011;43277;52.672;6.984;2024-03-08T01:12:34;22.75;;;10.73;;
57433;SDS011;43277;52.672;6.984;2024-03-08T01:15:00;24.02;;;11.13;;
57433;SDS011;43277;52.672;6.984;2024-03-08T01:17:26;22.30;;;11.25;;
57433;SDS011;43277;52.672;6.984;2024-03-08T01:19:51;24.90;;;11.80;;
57433;SDS011;43277;52.672;6.984;2024-03-08T01:22:18;25.30;;;12.35;;
57433;SDS011;43277;52.672;6.984;2024-03-08T01:24:44;26.70;;;10.82;;
57433;SDS011;43277;52.672;6.984;2024-03-08T01:27:10;20.00;;;9.70;;
57433;SDS011;43277;52.672;6.984;2024-03-08T01:29:37;22.00;;;10.55;;
57433;SDS011;43277;52.672;6.984;2024-03-08T01:32:02;25.17;;;11.10;;
57433;SDS011;43277;52.672;6.984;2024-03-08T01:34:28;26.77;;;11.80;;
57433;SDS011;43277;52.672;6.984;2024-03-08T01:36:54;21.40;;;10.98;;
57433;SDS011;43277;52.672;6.984;2024-03-08T01:39:23;23.35;;;10.82;;
57433;SDS011;43277;52.672;6.984;2024-03-08T01:41:49;21.35;;;9.43;;
57433;SDS011;43277;52.672;6.984;2024-03-08T01:44:14;23.25;;;11.32;;
57433;SDS011;43277;52.672;6.984;2024-03-08T01:46:43;31.05;;;12.05;;
57433;SDS011;43277;52.672;6.984;2024-03-08T01:49:10;26.20;;;11.80;;
57433;SDS011;43277;52.672;6.984;2024-03-08T01:51:37;21.15;;;10.82;;
57433;SDS011;43277;52.672;6.984;2024-03-08T01:54:05;30.25;;;13.00;;
57433;SDS011;43277;52.672;6.984;2024-03-08T01:56:31;25.35;;;11.65;;
57433;SDS011;43277;52.672;6.984;2024-03-08T01:58:58;28.65;;;12.02;;
57433;SDS011;43277;52.672;6.984;2024-03-08T02:01:24;26.80;;;12.98;;
57433;SDS011;43277;52.672;6.984;2024-03-08T02:03:50;24.15;;;11.88;;
57433;SDS011;43277;52.672;6.984;2024-03-08T02:06:16;25.50;;;10.93;;
57433;SDS011;43277;52.672;6.984;2024-03-08T02:08:45;22.35;;;10.18;;
57433;SDS011;43277;52.672;6.984;2024-03-08T02:11:11;26.02;;;11.77;;
57433;SDS011;43277;52.672;6.984;2024-03-08T02:13:37;21.60;;;11.18;;
57433;SDS011;43277;52.672;6.984;2024-03-08T02:16:03;23.73;;;11.65;;
57433;SDS011;43277;52.672;6.984;2024-03-08T02:18:31;20.75;;;10.23;;
57433;SDS011;43277;52.672;6.984;2024-03-08T02:20:59;26.25;;;12.05;;
57433;SDS011;43277;52.672;6.984;2024-03-08T02:23:29;25.02;;;10.35;;
57433;SDS011;43277;52.672;6.984;2024-03-08T02:25:55;17.75;;;8.80;;
57433;SDS011;43277;52.672;6.984;2024-03-08T02:28:21;24.48;;;11.18;;
57433;SDS011;43277;52.672;6.984;2024-03-08T02:30:48;25.85;;;11.80;;
57433;SDS011;43277;52.672;6.984;2024-03-08T02:33:15;27.30;;;11.55;;
57433;SDS011;43277;52.672;6.984;2024-03-08T02:35:42;20.63;;;11.73;;
57433;SDS011;43277;52.672;6.984;2024-03-08T02:38:14;23.17;;;10.20;;
57433;SDS011;43277;52.672;6.984;2024-03-08T02:40:42;25.07;;;11.20;;
57433;SDS011;43277;52.672;6.984;2024-03-08T02:43:08;31.65;;;11.55;;
57433;SDS011;43277;52.672;6.984;2024-03-08T02:45:34;21.83;;;9.55;;
57433;SDS011;43277;52.672;6.984;2024-03-08T02:48:00;21.50;;;10.80;;
57433;SDS011;43277;52.672;6.984;2024-03-08T02:50:25;23.63;;;11.75;;
57433;SDS011;43277;52.672;6.984;2024-03-08T02:52:51;25.20;;;12.52;;
57433;SDS011;43277;52.672;6.984;2024-03-08T02:55:17;15.18;;;7.75;;
57433;SDS011;43277;52.672;6.984;2024-03-08T02:57:42;21.98;;;10.48;;
57433;SDS011;43277;52.672;6.984;2024-03-08T03:00:12;19.83;;;10.02;;
57433;SDS011;43277;52.672;6.984;2024-03-08T03:02:38;23.77;;;10.60;;
57433;SDS011;43277;52.672;6.984;2024-03-08T03:05:04;24.45;;;11.13;;
57433;SDS011;43277;52.672;6.984;2024-03-08T03:07:31;25.95;;;11.43;;
57433;SDS011;43277;52.672;6.984;2024-03-08T03:09:58;21.10;;;10.43;;
57433;SDS011;43277;52.672;6.984;2024-03-08T03:12:25;23.95;;;10.30;;
57433;SDS011;43277;52.672;6.984;2024-03-08T03:14:52;19.25;;;9.52;;
57433;SDS011;43277;52.672;6.984;2024-03-08T03:17:18;24.80;;;11.25;;
57433;SDS011;43277;52.672;6.984;2024-03-08T03:19:45;23.17;;;10.52;;
57433;SDS011;43277;52.672;6.984;2024-03-08T03:22:11;24.77;;;10.43;;
57433;SDS011;43277;52.672;6.984;2024-03-08T03:24:37;18.35;;;8.18;;
57433;SDS011;43277;52.672;6.984;2024-03-08T03:27:04;16.20;;;7.82;;
57433;SDS011;43277;52.672;6.984;2024-03-08T03:29:39;25.30;;;10.82;;
57433;SDS011;43277;52.672;6.984;2024-03-08T03:32:07;26.23;;;12.70;;
57433;SDS011;43277;52.672;6.984;2024-03-08T03:34:33;21.08;;;11.13;;
57433;SDS011;43277;52.672;6.984;2024-03-08T03:37:02;21.92;;;11.75;;
57433;SDS011;43277;52.672;6.984;2024-03-08T03:39:29;23.80;;;10.93;;
57433;SDS011;43277;52.672;6.984;2024-03-08T03:41:57;25.00;;;10.52;;
57433;SDS011;43277;52.672;6.984;2024-03-08T03:44:23;25.35;;;11.85;;
57433;SDS011;43277;52.672;6.984;2024-03-08T03:46:49;21.10;;;9.43;;
57433;SDS011;43277;52.672;6.984;2024-03-08T03:49:17;22.95;;;11.15;;
57433;SDS011;43277;52.672;6.984;2024-03-08T03:51:43;19.70;;;10.85;;
57433;SDS011;43277;52.672;6.984;2024-03-08T03:54:09;25.92;;;11.95;;
57433;SDS011;43277;52.672;6.984;2024-03-08T03:56:35;15.35;;;8.07;;
57433;SDS011;43277;52.672;6.984;2024-03-08T03:59:01;22.40;;;11.20;;
57433;SDS011;43277;52.672;6.984;2024-03-08T04:01:27;19.80;;;11.15;;
57433;SDS011;43277;52.672;6.984;2024-03-08T04:03:52;23.08;;;10.82;;
57433;SDS011;43277;52.672;6.984;2024-03-08T04:06:18;21.33;;;10.57;;
57433;SDS011;43277;52.672;6.984;2024-03-08T04:08:43;21.65;;;9.18;;
57433;SDS011;43277;52.672;6.984;2024-03-08T04:11:09;13.95;;;7.68;;
57433;SDS011;43277;52.672;6.984;2024-03-08T04:13:35;23.08;;;10.35;;
57433;SDS011;43277;52.672;6.984;2024-03-08T04:16:01;23.42;;;11.95;;
57433;SDS011;43277;52.672;6.984;2024-03-08T04:18:27;23.25;;;11.15;;
57433;SDS011;43277;52.672;6.984;2024-03-08T04:20:53;22.17;;;10.95;;
57433;SDS011;43277;52.672;6.984;2024-03-08T04:23:19;18.58;;;8.63;;
57433;SDS011;43277;52.672;6.984;2024-03-08T04:25:44;22.25;;;12.07;;
57433;SDS011;43277;52.672;6.984;2024-03-08T04:28:10;20.30;;;11.48;;
57433;SDS011;43277;52.672;6.984;2024-03-08T04:30:37;24.95;;;11.95;;
57433;SDS011;43277;52.672;6.984;2024-03-08T04:33:04;23.88;;;10.50;;
57433;SDS011;43277;52.672;6.984;2024-03-08T04:35:30;27.10;;;11.15;;
57433;SDS011;43277;52.672;6.984;2024-03-08T04:37:55;27.73;;;13.60;;
57433;SDS011;43277;52.672;6.984;2024-03-08T04:40:22;22.63;;;11.52;;
57433;SDS011;43277;52.672;6.984;2024-03-08T04:42:48;29.40;;;12.35;;
57433;SDS011;43277;52.672;6.984;2024-03-08T04:45:17;24.58;;;10.88;;
57433;SDS011;43277;52.672;6.984;2024-03-08T04:47:42;26.95;;;13.20;;
57433;SDS011;43277;52.672;6.984;2024-03-08T04:50:08;27.15;;;13.32;;
57433;SDS011;43277;52.672;6.984;2024-03-08T04:52:34;28.08;;;12.48;;
57433;SDS011;43277;52.672;6.984;2024-03-08T04:55:00;23.08;;;11.68;;
57433;SDS011;43277;52.672;6.984;2024-03-08T04:57:29;27.13;;;12.52;;
57433;SDS011;43277;52.672;6.984;2024-03-08T04:59:55;27.58;;;11.93;;
57433;SDS011;43277;52.672;6.984;2024-03-08T05:02:20;20.48;;;11.50;;
57433;SDS011;43277;52.672;6.984;2024-03-08T05:04:47;22.95;;;10.63;;
57433;SDS011;43277;52.672;6.984;2024-03-08T05:07:13;22.75;;;10.95;;
57433;SDS011;43277;52.672;6.984;2024-03-08T05:09:39;27.52;;;12.15;;
57433;SDS011;43277;52.672;6.984;2024-03-08T05:12:06;29.40;;;13.48;;
57433;SDS011;43277;52.672;6.984;2024-03-08T05:14:32;19.45;;;10.32;;
57433;SDS011;43277;52.672;6.984;2024-03-08T05:16:59;24.13;;;12.20;;
57433;SDS011;43277;52.672;6.984;2024-03-08T05:19:26;27.35;;;11.55;;
57433;SDS011;43277;52.672;6.984;2024-03-08T05:21:51;23.90;;;11.43;;
57433;SDS011;43277;52.672;6.984;2024-03-08T05:24:17;24.05;;;10.98;;
57433;SDS011;43277;52.672;6.984;2024-03-08T05:26:43;29.20;;;12.90;;
57433;SDS011;43277;52.672;6.984;2024-03-08T05:29:09;23.55;;;11.00;;
57433;SDS011;43277;52.672;6.984;2024-03-08T05:31:39;26.15;;;12.05;;
57433;SDS011;43277;52.672;6.984;2024-03-08T05:34:13;21.10;;;10.00;;
57433;SDS011;43277;52.672;6.984;2024-03-08T05:36:39;30.17;;;14.07;;
57433;SDS011;43277;52.672;6.984;2024-03-08T05:39:11;20.35;;;9.68;;
57433;SDS011;43277;52.672;6.984;2024-03-08T05:41:38;21.52;;;11.52;;
57433;SDS011;43277;52.672;6.984;2024-03-08T05:44:05;32.67;;;12.93;;
57433;SDS011;43277;52.672;6.984;2024-03-08T05:46:31;31.63;;;13.13;;
57433;SDS011;43277;52.672;6.984;2024-03-08T05:48:56;25.98;;;12.95;;
57433;SDS011;43277;52.672;6.984;2024-03-08T05:51:24;26.23;;;12.32;;
57433;SDS011;43277;52.672;6.984;2024-03-08T05:53:52;31.85;;;13.50;;
57433;SDS011;43277;52.672;6.984;2024-03-08T05:56:18;22.60;;;12.20;;
57433;SDS011;43277;52.672;6.984;2024-03-08T05:58:44;23.45;;;10.40;;
57433;SDS011;43277;52.672;6.984;2024-03-08T06:01:10;21.92;;;11.48;;
57433;SDS011;43277;52.672;6.984;2024-03-08T06:03:37;26.08;;;11.52;;
57433;SDS011;43277;52.672;6.984;2024-03-08T06:06:13;22.30;;;12.63;;
57433;SDS011;43277;52.672;6.984;2024-03-08T06:08:39;30.23;;;12.63;;
57433;SDS011;43277;52.672;6.984;2024-03-08T06:11:05;29.58;;;12.38;;
57433;SDS011;43277;52.672;6.984;2024-03-08T06:13:34;18.48;;;9.93;;
57433;SDS011;43277;52.672;6.984;2024-03-08T06:16:00;27.10;;;13.15;;
57433;SDS011;43277;52.672;6.984;2024-03-08T06:18:29;30.65;;;14.00;;
57433;SDS011;43277;52.672;6.984;2024-03-08T06:20:55;28.75;;;12.25;;
57433;SDS011;43277;52.672;6.984;2024-03-08T06:23:21;22.17;;;8.85;;
57433;SDS011;43277;52.672;6.984;2024-03-08T06:25:47;30.52;;;13.13;;
57433;SDS011;43277;52.672;6.984;2024-03-08T06:28:13;28.15;;;12.55;;
57433;SDS011;43277;52.672;6.984;2024-03-08T06:30:39;26.00;;;13.52;;
57433;SDS011;43277;52.672;6.984;2024-03-08T06:33:05;30.63;;;12.02;;
57433;SDS011;43277;52.672;6.984;2024-03-08T06:35:32;25.70;;;11.88;;
57433;SDS011;43277;52.672;6.984;2024-03-08T06:37:58;28.10;;;11.73;;
57433;SDS011;43277;52.672;6.984;2024-03-08T06:40:23;27.38;;;12.52;;
57433;SDS011;43277;52.672;6.984;2024-03-08T06:42:49;28.95;;;14.07;;
57433;SDS011;43277;52.672;6.984;2024-03-08T06:45:17;33.40;;;13.32;;
57433;SDS011;43277;52.672;6.984;2024-03-08T06:47:45;27.35;;;12.38;;
57433;SDS011;43277;52.672;6.984;2024-03-08T06:50:11;24.27;;;12.25;;
57433;SDS011;43277;52.672;6.984;2024-03-08T06:52:37;17.48;;;8.10;;
57433;SDS011;43277;52.672;6.984;2024-03-08T06:55:04;27.08;;;11.82;;
57433;SDS011;43277;52.672;6.984;2024-03-08T06:57:30;26.35;;;13.38;;
57433;SDS011;43277;52.672;6.984;2024-03-08T06:59:56;25.23;;;12.10;;
57433;SDS011;43277;52.672;6.984;2024-03-08T07:02:22;26.40;;;14.07;;
57433;SDS011;43277;52.672;6.984;2024-03-08T07:04:51;26.25;;;12.88;;
57433;SDS011;43277;52.672;6.984;2024-03-08T07:07:18;17.05;;;8.23;;
57433;SDS011;43277;52.672;6.984;2024-03-08T07:09:45;28.67;;;12.20;;
57433;SDS011;43277;52.672;6.984;2024-03-08T07:12:11;31.20;;;12.77;;
57433;SDS011;43277;52.672;6.984;2024-03-08T07:14:38;27.23;;;12.05;;
57433;SDS011;43277;52.672;6.984;2024-03-08T07:17:08;19.15;;;10.02;;
57433;SDS011;43277;52.672;6.984;2024-03-08T07:19:34;27.55;;;13.20;;
57433;SDS011;43277;52.672;6.984;2024-03-08T07:22:00;24.45;;;12.05;;
57433;SDS011;43277;52.672;6.984;2024-03-08T07:24:28;24.75;;;12.57;;
57433;SDS011;43277;52.672;6.984;2024-03-08T07:27:20;23.83;;;11.88;;
57433;SDS011;43277;52.672;6.984;2024-03-08T07:29:46;23.25;;;10.20;;
57433;SDS011;43277;52.672;6.984;2024-03-08T07:32:11;24.10;;;12.23;;
57433;SDS011;43277;52.672;6.984;2024-03-08T07:34:58;29.20;;;13.68;;
57433;SDS011;43277;52.672;6.984;2024-03-08T07:37:23;26.73;;;12.80;;
57433;SDS011;43277;52.672;6.984;2024-03-08T07:39:49;27.17;;;13.43;;
57433;SDS011;43277;52.672;6.984;2024-03-08T07:42:15;19.63;;;11.38;;
57433;SDS011;43277;52.672;6.984;2024-03-08T07:44:41;30.77;;;14.73;;
57433;SDS011;43277;52.672;6.984;2024-03-08T07:47:08;30.70;;;12.95;;
57433;SDS011;43277;52.672;6.984;2024-03-08T07:49:35;16.00;;;8.75;;
57433;SDS011;43277;52.672;6.984;2024-03-08T07:52:02;24.05;;;12.30;;
57433;SDS011;43277;52.672;6.984;2024-03-08T07:54:32;26.25;;;13.43;;
57433;SDS011;43277;52.672;6.984;2024-03-08T07:57:00;16.58;;;8.70;;
57433;SDS011;43277;52.672;6.984;2024-03-08T07:59:27;21.35;;;11.13;;
57433;SDS011;43277;52.672;6.984;2024-03-08T08:01:54;24.70;;;12.68;;
57433;SDS011;43277;52.672;6.984;2024-03-08T08:04:20;27.10;;;14.65;;
57433;SDS011;43277;52.672;6.984;2024-03-08T08:06:49;15.45;;;7.97;;
57433;SDS011;43277;52.672;6.984;2024-03-08T08:09:16;21.83;;;12.10;;
57433;SDS011;43277;52.672;6.984;2024-03-08T08:11:53;29.58;;;12.50;;
57433;SDS011;43277;52.672;6.984;2024-03-08T08:14:19;27.63;;;13.93;;
57433;SDS011;43277;52.672;6.984;2024-03-08T08:16:46;27.20;;;14.13;;
57433;SDS011;43277;52.672;6.984;2024-03-08T08:19:13;17.75;;;10.73;;
57433;SDS011;43277;52.672;6.984;2024-03-08T08:21:40;24.88;;;12.82;;
57433;SDS011;43277;52.672;6.984;2024-03-08T08:24:06;26.13;;;12.68;;
57433;SDS011;43277;52.672;6.984;2024-03-08T08:26:32;21.92;;;11.13;;
57433;SDS011;43277;52.672;6.984;2024-03-08T08:28:59;25.25;;;12.60;;
57433;SDS011;43277;52.672;6.984;2024-03-08T08:31:25;25.85;;;12.52;;
57433;SDS011;43277;52.672;6.984;2024-03-08T08:33:51;29.02;;;13.65;;
57433;SDS011;43277;52.672;6.984;2024-03-08T08:36:23;22.17;;;11.45;;
57433;SDS011;43277;52.672;6.984;2024-03-08T08:38:51;27.63;;;13.15;;
57433;SDS011;43277;52.672;6.984;2024-03-08T08:41:21;28.08;;;13.30;;
57433;SDS011;43277;52.672;6.984;2024-03-08T08:43:47;24.50;;;11.77;;
57433;SDS011;43277;52.672;6.984;2024-03-08T08:46:16;16.52;;;9.18;;
57433;SDS011;43277;52.672;6.984;2024-03-08T08:48:42;26.42;;;12.48;;
57433;SDS011;43277;52.672;6.984;2024-03-08T08:51:10;20.55;;;11.35;;
57433;SDS011;43277;52.672;6.984;2024-03-08T08:53:37;20.45;;;9.23;;
57433;SDS011;43277;52.672;6.984;2024-03-08T08:56:05;32.13;;;28.73;;
57433;SDS011;43277;52.672;6.984;2024-03-08T08:58:33;29.25;;;23.25;;
57433;SDS011;43277;52.672;6.984;2024-03-08T09:00:58;23.70;;;12.40;;
57433;SDS011;43277;52.672;6.984;2024-03-08T09:03:24;24.65;;;13.02;;
57433;SDS011;43277;52.672;6.984;2024-03-08T09:05:52;25.85;;;13.02;;
57433;SDS011;43277;52.672;6.984;2024-03-08T09:08:17;27.08;;;14.43;;
57433;SDS011;43277;52.672;6.984;2024-03-08T09:10:43;32.50;;;28.98;;
57433;SDS011;43277;52.672;6.984;2024-03-08T09:13:09;22.55;;;11.25;;
57433;SDS011;43277;52.672;6.984;2024-03-08T09:15:36;27.40;;;13.57;;
57433;SDS011;43277;52.672;6.984;2024-03-08T09:18:05;28.52;;;14.20;;
57433;SDS011;43277;52.672;6.984;2024-03-08T09:20:31;27.65;;;13.70;;
57433;SDS011;43277;52.672;6.984;2024-03-08T09:22:57;22.77;;;12.95;;
57433;SDS011;43277;52.672;6.984;2024-03-08T09:25:23;18.15;;;9.82;;
57433;SDS011;43277;52.672;6.984;2024-03-08T09:27:48;32.63;;;29.30;;
57433;SDS011;43277;52.672;6.984;2024-03-08T09:30:14;24.23;;;12.88;;
57433;SDS011;43277;52.672;6.984;2024-03-08T09:32:40;23.42;;;14.27;;
57433;SDS011;43277;52.672;6.984;2024-03-08T09:35:08;22.63;;;12.55;;
57433;SDS011;43277;52.672;6.984;2024-03-08T09:37:34;26.98;;;13.82;;
57433;SDS011;43277;52.672;6.984;2024-03-08T09:40:00;25.33;;;14.00;;
57433;SDS011;43277;52.672;6.984;2024-03-08T09:42:29;20.88;;;10.63;;
57433;SDS011;43277;52.672;6.984;2024-03-08T09:44:56;20.52;;;11.68;;
57433;SDS011;43277;52.672;6.984;2024-03-08T09:47:23;32.67;;;28.67;;
57433;SDS011;43277;52.672;6.984;2024-03-08T09:49:54;21.65;;;11.43;;
57433;SDS011;43277;52.672;6.984;2024-03-08T09:52:19;23.95;;;11.73;;
57433;SDS011;43277;52.672;6.984;2024-03-08T09:54:45;30.70;;;26.75;;
57433;SDS011;43277;52.672;6.984;2024-03-08T09:57:11;29.63;;;24.88;;
57433;SDS011;43277;52.672;6.984;2024-03-08T09:59:37;30.27;;;26.92;;
57433;SDS011;43277;52.672;6.984;2024-03-08T10:02:13;29.33;;;24.27;;
57433;SDS011;43277;52.672;6.984;2024-03-08T10:04:40;23.20;;;10.93;;
57433;SDS011;43277;52.672;6.984;2024-03-08T10:07:11;21.92;;;11.38;;
57433;SDS011;43277;52.672;6.984;2024-03-08T10:09:37;30.02;;;27.08;;
57433;SDS011;43277;52.672;6.984;2024-03-08T10:12:04;23.77;;;12.48;;
57433;SDS011;43277;52.672;6.984;2024-03-08T10:14:30;25.48;;;11.65;;
57433;SDS011;43277;52.672;6.984;2024-03-08T10:16:56;30.20;;;26.85;;
57433;SDS011;43277;52.672;6.984;2024-03-08T10:19:25;29.10;;;26.02;;
57433;SDS011;43277;52.672;6.984;2024-03-08T10:21:51;29.27;;;26.23;;
57433;SDS011;43277;52.672;6.984;2024-03-08T10:24:18;27.13;;;13.13;;
57433;SDS011;43277;52.672;6.984;2024-03-08T10:26:45;27.77;;;22.67;;
57433;SDS011;43277;52.672;6.984;2024-03-08T10:29:11;17.58;;;9.38;;
57433;SDS011;43277;52.672;6.984;2024-03-08T10:31:42;29.33;;;26.23;;
57433;SDS011;43277;52.672;6.984;2024-03-08T10:34:09;29.65;;;22.98;;
57433;SDS011;43277;52.672;6.984;2024-03-08T10:36:35;28.58;;;25.55;;
57433;SDS011;43277;52.672;6.984;2024-03-08T10:39:06;24.85;;;20.17;;
57433;SDS011;43277;52.672;6.984;2024-03-08T10:41:47;29.60;;;26.50;;
57433;SDS011;43277;52.672;6.984;2024-03-08T10:49:25;29.35;;;26.25;;
57433;SDS011;43277;52.672;6.984;2024-03-08T10:52:04;28.50;;;25.40;;
57433;SDS011;43277;52.672;6.984;2024-03-08T10:54:33;28.60;;;25.55;;
57433;SDS011;43277;52.672;6.984;2024-03-08T10:57:03;27.55;;;24.67;;
57433;SDS011;43277;52.672;6.984;2024-03-08T10:59:30;27.17;;;24.35;;
57433;SDS011;43277;52.672;6.984;2024-03-08T11:01:58;28.75;;;25.75;;
57433;SDS011;43277;52.672;6.984;2024-03-08T11:04:24;19.27;;;12.95;;
57433;SDS011;43277;52.672;6.984;2024-03-08T11:06:50;27.83;;;24.90;;
57433;SDS011;43277;52.672;6.984;2024-03-08T11:15:13;27.80;;;24.88;;
57433;SDS011;43277;52.672;6.984;2024-03-08T11:22:40;24.38;;;16.35;;
57433;SDS011;43277;52.672;6.984;2024-03-08T11:25:15;27.02;;;20.42;;
57433;SDS011;43277;52.672;6.984;2024-03-08T11:33:24;20.23;;;12.07;;
57433;SDS011;43277;52.672;6.984;2024-03-08T11:36:03;24.02;;;20.33;;
57433;SDS011;43277;52.672;6.984;2024-03-08T11:38:45;23.30;;;19.25;;
57433;SDS011;43277;52.672;6.984;2024-03-08T11:41:17;23.63;;;21.10;;
57433;SDS011;43277;52.672;6.984;2024-03-08T11:43:48;26.08;;;23.38;;
57433;SDS011;43277;52.672;6.984;2024-03-08T11:46:15;24.48;;;21.52;;
57433;SDS011;43277;52.672;6.984;2024-03-08T11:48:42;26.88;;;24.15;;
57433;SDS011;43277;52.672;6.984;2024-03-08T11:51:08;25.48;;;22.92;;
57433;SDS011;43277;52.672;6.984;2024-03-08T11:53:38;26.08;;;23.40;;
57433;SDS011;43277;52.672;6.984;2024-03-08T11:56:05;26.15;;;23.45;;
57433;SDS011;43277;52.672;6.984;2024-03-08T11:58:38;24.83;;;22.42;;
57433;SDS011;43277;52.672;6.984;2024-03-08T12:03:38;24.27;;;21.88;;
57433;SDS011;43277;52.672;6.984;2024-03-08T12:06:09;24.23;;;21.50;;
57433;SDS011;43277;52.672;6.984;2024-03-08T12:08:43;27.45;;;22.52;;
57433;SDS011;43277;52.672;6.984;2024-03-08T12:11:08;25.83;;;23.10;;
57433;SDS011;43277;52.672;6.984;2024-03-08T12:13:35;25.60;;;23.08;;
57433;SDS011;43277;52.672;6.984;2024-03-08T12:16:03;24.75;;;22.17;;
57433;SDS011;43277;52.672;6.984;2024-03-08T12:18:33;25.27;;;22.70;;
57433;SDS011;43277;52.672;6.984;2024-03-08T12:21:10;24.60;;;22.05;;
57433;SDS011;43277;52.672;6.984;2024-03-08T12:23:39;24.10;;;21.63;;
57433;SDS011;43277;52.672;6.984;2024-03-08T12:26:14;22.30;;;20.10;;
57433;SDS011;43277;52.672;6.984;2024-03-08T12:28:41;24.95;;;22.13;;
57433;SDS011;43277;52.672;6.984;2024-03-08T12:31:11;24.27;;;21.73;;
57433;SDS011;43277;52.672;6.984;2024-03-08T12:33:37;23.92;;;21.52;;
57433;SDS011;43277;52.672;6.984;2024-03-08T12:36:14;24.67;;;22.17;;
57433;SDS011;43277;52.672;6.984;2024-03-08T12:38:44;25.45;;;19.08;;
57433;SDS011;43277;52.672;6.984;2024-03-08T12:41:15;24.42;;;21.92;;
57433;SDS011;43277;52.672;6.984;2024-03-08T12:43:42;16.08;;;14.27;;
57433;SDS011;43277;52.672;6.984;2024-03-08T12:46:17;21.73;;;14.95;;
57433;SDS011;43277;52.672;6.984;2024-03-08T12:48:47;24.60;;;21.85;;
57433;SDS011;43277;52.672;6.984;2024-03-08T12:51:13;23.83;;;17.27;;
57433;SDS011;43277;52.672;6.984;2024-03-08T12:53:41;23.27;;;14.93;;
57433;SDS011;43277;52.672;6.984;2024-03-08T12:56:10;19.65;;;14.90;;
57433;SDS011;43277;52.672;6.984;2024-03-08T12:58:37;22.42;;;17.70;;
57433;SDS011;43277;52.672;6.984;2024-03-08T13:01:04;24.38;;;15.65;;
57433;SDS011;43277;52.672;6.984;2024-03-08T13:03:35;24.63;;;22.17;;
57433;SDS011;43277;52.672;6.984;2024-03-08T13:06:05;21.10;;;14.68;;
57433;SDS011;43277;52.672;6.984;2024-03-08T13:11:04;18.00;;;10.45;;
57433;SDS011;43277;52.672;6.984;2024-03-08T13:13:32;24.52;;;17.15;;
57433;SDS011;43277;52.672;6.984;2024-03-08T13:16:00;23.45;;;16.10;;
57433;SDS011;43277;52.672;6.984;2024-03-08T13:18:26;21.60;;;19.38;;
57433;SDS011;43277;52.672;6.984;2024-03-08T13:20:53;18.15;;;13.52;;
57433;SDS011;43277;52.672;6.984;2024-03-08T13:23:20;24.98;;;22.48;;
57433;SDS011;43277;52.672;6.984;2024-03-08T13:25:45;20.55;;;13.93;;
57433;SDS011;43277;52.672;6.984;2024-03-08T13:28:14;22.05;;;15.50;;
57433;SDS011;43277;52.672;6.984;2024-03-08T13:30:42;20.33;;;12.57;;
57433;SDS011;43277;52.672;6.984;2024-03-08T13:33:09;23.27;;;14.60;;
57433;SDS011;43277;52.672;6.984;2024-03-08T13:35:34;21.25;;;15.02;;
57433;SDS011;43277;52.672;6.984;2024-03-08T13:38:00;20.65;;;16.75;;
57433;SDS011;43277;52.672;6.984;2024-03-08T13:40:29;22.45;;;17.33;;
57433;SDS011;43277;52.672;6.984;2024-03-08T13:42:55;21.45;;;19.15;;
57433;SDS011;43277;52.672;6.984;2024-03-08T13:45:21;21.35;;;16.92;;
57433;SDS011;43277;52.672;6.984;2024-03-08T13:47:49;23.02;;;17.40;;
57433;SDS011;43277;52.672;6.984;2024-03-08T13:50:16;20.80;;;15.70;;
57433;SDS011;43277;52.672;6.984;2024-03-08T13:52:46;21.38;;;19.02;;
57433;SDS011;43277;52.672;6.984;2024-03-08T13:55:18;21.77;;;14.90;;
57433;SDS011;43277;52.672;6.984;2024-03-08T13:57:45;20.92;;;14.48;;
57433;SDS011;43277;52.672;6.984;2024-03-08T14:00:11;20.15;;;18.17;;
57433;SDS011;43277;52.672;6.984;2024-03-08T14:02:38;19.38;;;17.42;;
57433;SDS011;43277;52.672;6.984;2024-03-08T14:05:06;20.27;;;18.00;;
57433;SDS011;43277;52.672;6.984;2024-03-08T14:07:34;21.67;;;19.40;;
57433;SDS011;43277;52.672;6.984;2024-03-08T14:10:00;20.77;;;18.77;;
57433;SDS011;43277;52.672;6.984;2024-03-08T14:12:25;21.05;;;18.98;;
57433;SDS011;43277;52.672;6.984;2024-03-08T14:14:52;19.88;;;17.80;;
57433;SDS011;43277;52.672;6.984;2024-03-08T14:17:18;18.98;;;16.98;;
57433;SDS011;43277;52.672;6.984;2024-03-08T14:19:44;20.38;;;18.27;;
57433;SDS011;43277;52.672;6.984;2024-03-08T14:22:09;20.30;;;18.27;;
57433;SDS011;43277;52.672;6.984;2024-03-08T14:24:42;23.23;;;17.88;;
57433;SDS011;43277;52.672;6.984;2024-03-08T14:27:09;18.88;;;17.08;;
57433;SDS011;43277;52.672;6.984;2024-03-08T14:29:35;19.70;;;17.67;;
57433;SDS011;43277;52.672;6.984;2024-03-08T14:32:01;19.05;;;17.15;;
57433;SDS011;43277;52.672;6.984;2024-03-08T14:34:28;19.98;;;17.85;;
57433;SDS011;43277;52.672;6.984;2024-03-08T14:36:58;19.98;;;17.95;;
57433;SDS011;43277;52.672;6.984;2024-03-08T14:39:25;19.23;;;17.23;;
57433;SDS011;43277;52.672;6.984;2024-03-08T14:41:54;20.20;;;17.88;;
57433;SDS011;43277;52.672;6.984;2024-03-08T14:44:21;19.58;;;17.58;;
57433;SDS011;43277;52.672;6.984;2024-03-08T14:46:51;20.15;;;18.23;;
57433;SDS011;43277;52.672;6.984;2024-03-08T14:49:26;19.70;;;17.80;;
57433;SDS011;43277;52.672;6.984;2024-03-08T14:51:54;19.25;;;17.30;;